Time;durP1;ratioP1;P1;durP2;ratioP2;P2;SDS_P1;SDS_P2;PMS_P1;PMS_P2;Temp;Humidity;BMP_temperature;BMP_pressure;BME280_temperature;BME280_humidity;BME280_pressure;Samples;Min_cycle;Max_cycle;Signal;HPM_P1;HPM_P2
2022/12/04 00:00:08;;;;;;;21.57;12.63;;;1.60;1.00;;;;;;5047625;28;20183;-66
2022/12/04 00:02:34;;;;;;;24.83;13.93;;;1.40;1.00;;;;;;5040741;28;20213;-66
2022/12/04 00:05:01;;;;;;;27.80;14.93;;;1.40;1.00;;;;;;5040682;28;20434;-67
2022/12/04 00:07:27;;;;;;;24.00;14.20;;;1.20;1.00;;;;;;5042886;28;20425;-66
2022/12/04 00:09:53;;;;;;;30.87;14.47;;;1.20;1.00;;;;;;5044792;28;20491;-66
2022/12/04 00:12:18;;;;;;;27.83;14.20;;;1.30;1.00;;;;;;5033212;28;20249;-66
2022/12/04 00:14:44;;;;;;;32.17;14.10;;;1.40;1.00;;;;;;5044502;28;20689;-66
2022/12/04 00:17:10;;;;;;;22.90;13.30;;;1.20;1.00;;;;;;5048884;28;20191;-66
2022/12/04 00:19:35;;;;;;;30.20;14.67;;;1.80;1.00;;;;;;5037812;28;20183;-65
2022/12/04 00:22:01;;;;;;;27.63;13.67;;;1.60;1.00;;;;;;5037008;28;20202;-65
2022/12/04 00:24:27;;;;;;;29.20;14.67;;;1.70;1.00;;;;;;5046863;28;20183;-64
2022/12/04 00:26:53;;;;;;;31.73;15.37;;;1.70;1.00;;;;;;5045696;28;20278;-67
2022/12/04 00:29:18;;;;;;;29.20;15.13;;;1.60;1.00;;;;;;5046522;28;20196;-66
2022/12/04 00:31:44;;;;;;;34.00;15.67;;;1.40;1.00;;;;;;5041144;28;20297;-67
2022/12/04 00:34:10;;;;;;;29.67;14.87;;;1.50;1.00;;;;;;5044129;28;20218;-65
2022/12/04 00:36:36;;;;;;;33.80;14.93;;;1.20;1.00;;;;;;5034144;28;20168;-69
2022/12/04 00:39:03;;;;;;;33.17;15.60;;;1.10;1.00;;;;;;5049791;28;20433;-63
2022/12/04 00:41:31;;;;;;;27.97;14.67;;;1.20;1.00;;;;;;5034188;28;20434;-67
2022/12/04 00:43:56;;;;;;;34.90;15.63;;;1.30;1.00;;;;;;5049842;28;20477;-67
2022/12/04 00:46:23;;;;;;;27.87;14.93;;;1.40;1.00;;;;;;5038846;28;20439;-67
2022/12/04 00:48:49;;;;;;;32.27;16.33;;;1.40;1.00;;;;;;5040139;28;20218;-65
2022/12/04 00:51:17;;;;;;;29.47;14.87;;;1.70;1.00;;;;;;5049981;28;20861;-68
2022/12/04 00:53:44;;;;;;;28.17;15.00;;;1.80;1.00;;;;;;5037475;28;20462;-67
2022/12/04 00:56:12;;;;;;;32.00;16.30;;;1.80;1.00;;;;;;5045630;28;20437;-68
2022/12/04 00:58:38;;;;;;;23.53;13.53;;;1.50;1.00;;;;;;5043919;28;20474;-66
2022/12/04 01:01:07;;;;;;;28.33;12.43;;;1.30;1.00;;;;;;5047265;28;21246;-67
2022/12/04 01:03:33;;;;;;;29.53;14.73;;;1.40;1.00;;;;;;5049232;28;20199;-66
2022/12/04 01:05:59;;;;;;;29.57;15.23;;;1.60;1.00;;;;;;5042029;28;20525;-67
2022/12/04 01:08:25;;;;;;;25.60;11.60;;;1.70;1.00;;;;;;5043961;28;20190;-67
2022/12/04 01:10:51;;;;;;;27.13;13.20;;;1.60;1.00;;;;;;5048423;28;20957;-67
2022/12/04 01:13:16;;;;;;;25.63;13.00;;;1.50;1.00;;;;;;5050597;28;20233;-67
2022/12/04 01:15:42;;;;;;;25.17;13.40;;;1.60;1.00;;;;;;5040148;28;20175;-66
2022/12/04 01:18:11;;;;;;;24.97;12.67;;;1.40;1.00;;;;;;5039876;28;20215;-67
2022/12/04 01:20:37;;;;;;;25.03;13.17;;;1.30;1.00;;;;;;5045265;28;20502;-67
2022/12/04 01:23:02;;;;;;;26.87;14.33;;;1.10;1.00;;;;;;5039591;28;20533;-66
2022/12/04 01:25:28;;;;;;;29.53;14.70;;;1.30;1.00;;;;;;5041574;28;20425;-67
2022/12/04 01:27:54;;;;;;;27.10;13.10;;;1.40;1.00;;;;;;5049187;28;20168;-67
2022/12/04 01:30:20;;;;;;;26.37;14.53;;;1.40;1.00;;;;;;5042460;28;20175;-67
2022/12/04 01:32:45;;;;;;;26.60;13.23;;;1.30;1.00;;;;;;5042723;28;20225;-67
2022/12/04 01:35:11;;;;;;;29.10;14.70;;;1.40;1.00;;;;;;5040370;28;20215;-67
2022/12/04 01:37:37;;;;;;;25.03;13.50;;;1.20;1.00;;;;;;5042379;28;20712;-67
2022/12/04 01:40:03;;;;;;;22.67;12.53;;;1.20;1.00;;;;;;5037665;28;20261;-68
2022/12/04 01:42:29;;;;;;;27.80;12.43;;;1.20;1.00;;;;;;5040373;28;20225;-65
2022/12/04 01:45:40;;;;;;;20.63;12.00;;;1.00;1.00;;;;;;5038304;28;20434;-68
2022/12/04 01:48:29;;;;;;;25.90;13.33;;;0.90;1.00;;;;;;5033342;28;20198;-67
2022/12/04 01:51:08;;;;;;;26.53;14.10;;;0.90;1.00;;;;;;5038843;28;20430;-67
2022/12/04 01:53:38;;;;;;;24.03;13.80;;;1.10;1.00;;;;;;5040303;28;20829;-68
2022/12/04 01:56:05;;;;;;;31.83;13.40;;;1.30;1.00;;;;;;5039100;28;20473;-67
2022/12/04 01:58:35;;;;;;;31.60;15.57;;;1.50;1.00;;;;;;5035482;28;20441;-68
2022/12/04 02:01:04;;;;;;;30.60;15.00;;;1.40;1.00;;;;;;5046575;28;20834;-68
2022/12/04 02:03:30;;;;;;;29.97;15.30;;;1.30;1.00;;;;;;5043758;28;20541;-68
2022/12/04 02:05:56;;;;;;;30.87;14.13;;;1.50;1.00;;;;;;5038356;28;20521;-67
2022/12/04 02:08:22;;;;;;;29.67;15.00;;;1.90;1.00;;;;;;5030439;28;20696;-66
2022/12/04 02:11:00;;;;;;;29.50;14.00;;;1.80;1.00;;;;;;5040753;28;20292;-68
2022/12/04 02:13:54;;;;;;;31.03;16.40;;;1.30;1.00;;;;;;5037107;28;20482;-67
2022/12/04 02:16:38;;;;;;;27.57;13.93;;;1.20;1.00;;;;;;5037877;28;20422;-67
2022/12/04 02:19:39;;;;;;;31.83;15.13;;;1.20;1.00;;;;;;5046176;28;20457;-67
2022/12/04 02:22:22;;;;;;;32.37;14.87;;;1.20;1.00;;;;;;5037469;28;20445;-68
2022/12/04 02:25:03;;;;;;;26.03;14.17;;;1.40;1.00;;;;;;5035598;28;20441;-66
2022/12/04 02:27:38;;;;;;;24.00;13.23;;;1.50;1.00;;;;;;5040434;28;20425;-67
2022/12/04 02:30:07;;;;;;;42.50;15.87;;;1.70;1.00;;;;;;5035894;28;20437;-67
2022/12/04 02:32:42;;;;;;;32.70;14.93;;;1.80;1.00;;;;;;5041867;28;20445;-67
2022/12/04 02:35:16;;;;;;;28.93;14.17;;;1.60;1.00;;;;;;5031677;28;20544;-68
2022/12/04 02:37:49;;;;;;;31.80;13.90;;;1.50;1.00;;;;;;5046108;28;20451;-67
2022/12/04 02:40:32;;;;;;;34.83;15.40;;;1.60;1.00;;;;;;5040832;28;20426;-67
2022/12/04 02:43:07;;;;;;;26.60;14.60;;;1.70;1.00;;;;;;5029244;28;20552;-67
2022/12/04 02:45:40;;;;;;;29.07;15.40;;;1.60;1.00;;;;;;5034061;28;20429;-68
2022/12/04 02:48:07;;;;;;;29.33;14.90;;;1.60;1.00;;;;;;5043502;28;20456;-66
2022/12/04 02:50:39;;;;;;;26.80;12.67;;;1.70;1.00;;;;;;5041202;28;20913;-68
2022/12/04 02:53:11;;;;;;;24.63;14.17;;;1.70;1.00;;;;;;5042703;28;20445;-67
2022/12/04 02:55:42;;;;;;;28.90;15.07;;;1.90;1.00;;;;;;5035123;28;20433;-66
2022/12/04 02:58:19;;;;;;;30.33;15.50;;;1.50;1.00;;;;;;5050881;28;20494;-66
2022/12/04 03:00:47;;;;;;;29.10;14.73;;;1.50;1.00;;;;;;5045628;28;20535;-68
2022/12/04 03:03:23;;;;;;;28.90;15.10;;;1.40;1.00;;;;;;5042195;28;20457;-68
2022/12/04 03:05:51;;;;;;;33.37;15.30;;;1.20;1.00;;;;;;5043262;28;20437;-66
2022/12/04 03:08:22;;;;;;;26.17;14.77;;;1.10;1.00;;;;;;5044472;28;20449;-68
2022/12/04 03:10:53;;;;;;;30.30;14.77;;;1.20;1.00;;;;;;5043026;28;20434;-67
2022/12/04 03:13:27;;;;;;;30.80;15.10;;;1.10;1.00;;;;;;5052462;28;20450;-67
2022/12/04 03:16:00;;;;;;;34.00;17.70;;;1.30;1.00;;;;;;5044408;28;20433;-66
2022/12/04 03:18:38;;;;;;;23.53;13.63;;;1.40;1.00;;;;;;5048374;28;20944;-67
2022/12/04 03:21:09;;;;;;;28.87;14.60;;;1.50;1.00;;;;;;5048853;28;20436;-65
2022/12/04 03:23:45;;;;;;;23.90;14.33;;;1.40;1.00;;;;;;5039623;28;20459;-67
2022/12/04 03:26:29;;;;;;;23.17;13.17;;;1.60;1.00;;;;;;5044464;28;20444;-67
2022/12/04 03:29:21;;;;;;;25.10;13.70;;;1.50;1.00;;;;;;5042697;28;20433;-67
2022/12/04 03:32:00;;;;;;;24.80;13.37;;;1.60;1.00;;;;;;5041621;28;20429;-67
2022/12/04 03:34:53;;;;;;;26.00;13.40;;;1.30;1.00;;;;;;5033374;28;20789;-67
2022/12/04 03:37:29;;;;;;;20.53;12.87;;;1.40;1.00;;;;;;5044193;28;20429;-67
2022/12/04 03:39:58;;;;;;;22.43;13.07;;;1.40;1.00;;;;;;5036191;28;20437;-67
2022/12/04 03:42:28;;;;;;;28.77;14.47;;;1.30;1.00;;;;;;5032025;28;20469;-69
2022/12/04 03:45:09;;;;;;;25.57;12.60;;;1.30;1.00;;;;;;5046588;28;21054;-68
2022/12/04 03:47:50;;;;;;;21.13;12.10;;;1.30;1.00;;;;;;5042766;28;20789;-67
2022/12/04 03:50:37;;;;;;;25.60;13.40;;;1.50;1.00;;;;;;5034658;28;20447;-67
2022/12/04 03:53:16;;;;;;;24.70;13.43;;;1.60;1.00;;;;;;5044614;28;20453;-69
2022/12/04 03:56:10;;;;;;;24.10;13.50;;;1.60;1.00;;;;;;5040263;28;20466;-67
2022/12/04 03:58:39;;;;;;;20.67;12.33;;;1.70;1.00;;;;;;5049304;28;20774;-66
2022/12/04 04:01:08;;;;;;;24.83;13.70;;;1.80;1.00;;;;;;5045534;28;20422;-67
2022/12/04 04:03:38;;;;;;;23.70;13.87;;;1.70;1.00;;;;;;5042823;28;20479;-67
2022/12/04 04:06:17;;;;;;;26.10;11.93;;;1.60;1.00;;;;;;5035050;28;20433;-67
2022/12/04 04:08:47;;;;;;;27.10;13.63;;;1.70;1.00;;;;;;5032246;28;20907;-68
2022/12/04 04:11:19;;;;;;;22.40;13.23;;;1.70;1.00;;;;;;5030768;28;20552;-69
2022/12/04 04:25:28;;;;;;;22.63;13.67;;;1.70;1.00;;;;;;5041510;28;20440;-65
2022/12/04 04:27:55;;;;;;;26.30;12.33;;;1.80;1.00;;;;;;5040417;28;20579;-67
2022/12/04 04:30:21;;;;;;;19.10;11.37;;;1.80;1.00;;;;;;5047501;28;20521;-64
2022/12/04 04:32:58;;;;;;;25.90;13.20;;;1.80;1.00;;;;;;5048148;28;20583;-65
2022/12/04 04:35:36;;;;;;;18.30;11.37;;;1.80;1.00;;;;;;5049088;28;20773;-64
2022/12/04 04:38:33;;;;;;;25.93;13.40;;;1.90;1.00;;;;;;5031453;28;20457;-65
2022/12/04 04:41:09;;;;;;;26.60;12.60;;;1.80;1.00;;;;;;5031915;28;20421;-66
2022/12/04 04:43:58;;;;;;;26.30;13.30;;;1.80;1.00;;;;;;5044858;28;20471;-66
2022/12/04 04:46:34;;;;;;;22.33;13.10;;;1.80;1.00;;;;;;5031084;28;20938;-66
2022/12/04 04:49:06;;;;;;;19.13;11.40;;;1.60;1.00;;;;;;5031214;28;20764;-66
2022/12/04 04:51:33;;;;;;;20.17;12.07;;;1.80;1.00;;;;;;5047464;28;20957;-66
2022/12/04 04:54:05;;;;;;;23.00;12.10;;;1.80;1.00;;;;;;5040614;28;20461;-65
2022/12/04 04:56:30;;;;;;;22.87;12.60;;;1.90;1.00;;;;;;5040754;28;20434;-67
2022/12/04 04:58:56;;;;;;;21.57;11.60;;;1.70;1.00;;;;;;5043590;28;21005;-67
2022/12/04 05:01:25;;;;;;;20.83;11.60;;;1.60;1.00;;;;;;5038098;28;20168;-65
2022/12/04 05:03:51;;;;;;;17.20;10.77;;;1.70;1.00;;;;;;5044088;28;20564;-65
2022/12/04 05:06:17;;;;;;;18.97;10.83;;;1.70;1.00;;;;;;5040858;28;20426;-67
2022/12/04 05:08:43;;;;;;;24.70;13.37;;;1.70;1.00;;;;;;5049414;28;20183;-67
2022/12/04 05:11:13;;;;;;;24.83;13.00;;;1.70;1.00;;;;;;5031200;28;20427;-65
2022/12/04 05:13:39;;;;;;;27.00;13.20;;;1.80;1.00;;;;;;5039188;28;20494;-66
2022/12/04 05:16:07;;;;;;;18.00;11.03;;;1.80;1.00;;;;;;5039664;28;20552;-66
2022/12/04 05:18:34;;;;;;;19.70;12.40;;;1.90;1.00;;;;;;5051931;28;20425;-66
2022/12/04 05:21:08;;;;;;;22.93;10.77;;;1.90;1.00;;;;;;5055643;28;20429;-66
2022/12/04 05:23:34;;;;;;;23.23;11.23;;;1.90;1.00;;;;;;5052489;28;20523;-66
2022/12/04 05:26:01;;;;;;;19.60;10.17;;;1.90;1.00;;;;;;5044343;28;20958;-65
2022/12/04 05:28:27;;;;;;;17.33;11.60;;;1.70;1.00;;;;;;5040364;28;20280;-66
2022/12/04 05:30:57;;;;;;;22.87;11.50;;;1.60;1.00;;;;;;5040504;28;21062;-64
2022/12/04 05:33:23;;;;;;;18.20;11.77;;;1.60;1.00;;;;;;5050554;28;20539;-65
2022/12/04 05:36:01;;;;;;;20.00;12.33;;;1.70;1.00;;;;;;5042004;28;20794;-61
2022/12/04 05:38:27;;;;;;;18.83;11.40;;;1.70;1.00;;;;;;5044545;28;20425;-61
2022/12/04 05:40:52;;;;;;;23.80;11.10;;;1.60;1.00;;;;;;5040726;28;20433;-64
2022/12/04 05:43:18;;;;;;;22.60;11.73;;;1.80;1.00;;;;;;5046050;28;20460;-60
2022/12/04 05:45:44;;;;;;;20.23;10.47;;;1.90;1.00;;;;;;5047992;28;20248;-65
2022/12/04 05:48:10;;;;;;;18.80;11.40;;;1.80;1.00;;;;;;5038757;28;20203;-66
2022/12/04 05:50:37;;;;;;;20.67;11.70;;;1.70;1.00;;;;;;5042248;28;20171;-62
2022/12/04 05:53:03;;;;;;;29.77;13.23;;;1.70;1.00;;;;;;5041713;28;20205;-62
2022/12/04 05:55:29;;;;;;;28.30;13.00;;;1.50;1.00;;;;;;5049454;28;20457;-63
2022/12/04 05:57:55;;;;;;;21.40;12.60;;;1.50;1.00;;;;;;5044722;28;20182;-67
2022/12/04 06:00:20;;;;;;;20.20;11.00;;;1.60;1.00;;;;;;5044671;28;20524;-66
2022/12/04 06:02:46;;;;;;;20.33;11.80;;;1.60;1.00;;;;;;5031274;28;20199;-65
2022/12/04 06:05:12;;;;;;;24.17;12.50;;;1.60;1.00;;;;;;5029558;28;20544;-66
2022/12/04 06:07:38;;;;;;;23.90;12.27;;;1.50;1.00;;;;;;5047465;28;20228;-60
2022/12/04 06:10:06;;;;;;;22.00;12.50;;;1.70;1.00;;;;;;5041574;28;20722;-64
2022/12/04 06:12:31;;;;;;;21.30;11.10;;;2.00;1.00;;;;;;5043540;28;20202;-66
2022/12/04 06:14:57;;;;;;;22.57;12.33;;;2.00;1.00;;;;;;5034406;28;21034;-63
2022/12/04 06:17:23;;;;;;;20.40;12.03;;;2.00;1.00;;;;;;5039541;28;20176;-66
2022/12/04 06:19:48;;;;;;;23.40;13.97;;;2.20;1.00;;;;;;5050987;28;20175;-64
2022/12/04 06:22:14;;;;;;;26.10;14.07;;;2.20;1.00;;;;;;5041525;28;20279;-66
2022/12/04 06:24:40;;;;;;;24.53;12.40;;;2.20;1.00;;;;;;5048815;28;20464;-66
2022/12/04 06:27:05;;;;;;;20.20;11.43;;;2.30;1.00;;;;;;5042286;28;20281;-66
2022/12/04 06:29:31;;;;;;;22.73;12.33;;;2.10;1.00;;;;;;5040668;28;20513;-63
2022/12/04 06:31:57;;;;;;;23.93;13.63;;;2.20;1.00;;;;;;5034801;28;20219;-62
2022/12/04 06:34:23;;;;;;;22.17;13.30;;;2.30;1.00;;;;;;5031769;28;20234;-64
2022/12/04 06:36:48;;;;;;;26.70;13.77;;;2.20;1.00;;;;;;5041195;28;20257;-64
2022/12/04 06:39:14;;;;;;;23.33;12.43;;;2.00;1.00;;;;;;5043749;28;20259;-67
2022/12/04 06:41:40;;;;;;;27.43;13.60;;;2.10;1.00;;;;;;5036906;28;20176;-64
2022/12/04 06:44:05;;;;;;;22.33;13.27;;;2.10;1.00;;;;;;5044008;28;20220;-64
2022/12/04 06:46:32;;;;;;;23.13;12.50;;;2.10;1.00;;;;;;5041707;28;20183;-65
2022/12/04 06:49:00;;;;;;;24.00;13.30;;;2.10;1.00;;;;;;5041490;28;20194;-64
2022/12/04 06:51:36;;;;;;;23.03;13.77;;;2.20;1.00;;;;;;5045424;28;20424;-67
2022/12/04 06:54:03;;;;;;;25.37;13.63;;;2.30;1.00;;;;;;5038756;28;20471;-64
2022/12/04 06:56:31;;;;;;;25.80;13.43;;;2.30;1.00;;;;;;5043373;28;20469;-64
2022/12/04 06:58:58;;;;;;;21.23;12.70;;;2.30;1.00;;;;;;5044907;28;20822;-64
2022/12/04 07:01:27;;;;;;;21.30;14.30;;;2.10;1.00;;;;;;5041421;28;20494;-65
2022/12/04 07:03:53;;;;;;;29.93;16.03;;;2.00;1.00;;;;;;5046246;28;20514;-64
2022/12/04 07:06:22;;;;;;;20.63;12.67;;;2.10;1.00;;;;;;5033951;28;20774;-65
2022/12/04 07:08:50;;;;;;;20.23;12.30;;;2.20;1.00;;;;;;5039555;28;20517;-65
2022/12/04 07:11:17;;;;;;;27.27;14.20;;;2.30;1.00;;;;;;5038014;28;20429;-65
2022/12/04 07:13:43;;;;;;;25.50;13.63;;;2.30;1.00;;;;;;5032317;28;20457;-65
2022/12/04 07:16:12;;;;;;;23.77;14.67;;;2.30;1.00;;;;;;5029184;28;20791;-65
2022/12/04 07:18:37;;;;;;;25.27;13.53;;;2.10;1.00;;;;;;5029841;28;20259;-65
2022/12/04 07:21:08;;;;;;;26.10;14.17;;;2.00;1.00;;;;;;5029017;28;20568;-65
2022/12/04 07:23:34;;;;;;;24.70;13.57;;;2.10;1.00;;;;;;5036958;28;20239;-64
2022/12/04 07:26:18;;;;;;;28.83;15.37;;;2.20;1.00;;;;;;5034451;28;20525;-64
2022/12/04 07:28:44;;;;;;;26.57;15.23;;;2.20;1.00;;;;;;5033059;28;20958;-66
2022/12/04 07:31:16;;;;;;;32.83;13.63;;;2.30;1.00;;;;;;5038370;28;20434;-64
2022/12/04 07:33:43;;;;;;;31.53;14.30;;;2.50;1.00;;;;;;5038757;28;20558;-65
2022/12/04 07:36:15;;;;;;;24.57;12.53;;;2.50;1.00;;;;;;5042741;28;20429;-66
2022/12/04 07:38:41;;;;;;;24.63;13.70;;;2.40;1.00;;;;;;5056323;28;20427;-64
2022/12/04 07:41:07;;;;;;;26.57;14.70;;;2.30;1.00;;;;;;5050140;28;20421;-63
2022/12/04 07:43:33;;;;;;;24.47;13.23;;;2.30;1.00;;;;;;5049295;28;20717;-65
2022/12/04 07:46:04;;;;;;;18.87;11.27;;;2.20;1.00;;;;;;5040282;28;20452;-66
2022/12/04 07:48:30;;;;;;;25.07;14.17;;;2.40;1.00;;;;;;5044583;28;20945;-63
2022/12/04 07:51:09;;;;;;;23.97;13.03;;;2.60;1.00;;;;;;5050683;28;20437;-62
2022/12/04 07:53:35;;;;;;;26.27;15.00;;;2.50;1.00;;;;;;5048008;28;20214;-65
2022/12/04 07:56:03;;;;;;;21.77;12.30;;;2.40;1.00;;;;;;5050223;28;20452;-67
2022/12/04 07:58:28;;;;;;;22.33;13.40;;;2.10;1.00;;;;;;5049592;28;20429;-61
2022/12/04 08:00:54;;;;;;;21.40;13.73;;;2.00;1.00;;;;;;5050030;28;20438;-64
2022/12/04 08:03:20;;;;;;;26.97;13.83;;;2.30;1.00;;;;;;5052251;28;20199;-66
2022/12/04 08:05:45;;;;;;;26.30;13.80;;;2.50;1.00;;;;;;5051147;28;20224;-66
2022/12/04 08:08:11;;;;;;;24.37;14.73;;;2.40;1.00;;;;;;5049212;28;20270;-65
2022/12/04 08:10:39;;;;;;;26.77;13.00;;;2.40;1.00;;;;;;5049471;28;20251;-65
2022/12/04 08:13:05;;;;;;;26.00;15.33;;;2.40;1.00;;;;;;5050935;28;20222;-66
2022/12/04 08:15:33;;;;;;;26.63;13.23;;;2.30;1.00;;;;;;5051044;28;20468;-65
2022/12/04 08:17:59;;;;;;;24.40;12.93;;;2.20;1.00;;;;;;5051032;28;20571;-64
2022/12/04 08:20:25;;;;;;;33.47;14.20;;;2.30;1.00;;;;;;5050126;28;20502;-64
2022/12/04 08:22:50;;;;;;;30.83;14.27;;;2.30;1.00;;;;;;5052029;28;20195;-65
2022/12/04 08:25:17;;;;;;;28.63;13.33;;;2.10;1.00;;;;;;5051599;28;20258;-64
2022/12/04 08:27:45;;;;;;;25.70;13.63;;;2.20;1.00;;;;;;5049055;28;20182;-64
2022/12/04 08:30:12;;;;;;;33.70;16.50;;;2.20;1.00;;;;;;5050277;28;20433;-66
2022/12/04 08:32:37;;;;;;;29.20;15.50;;;2.30;1.00;;;;;;5050594;28;20460;-65
2022/12/04 08:35:03;;;;;;;28.47;13.93;;;2.20;1.00;;;;;;5046993;28;20457;-66
2022/12/04 08:37:29;;;;;;;32.20;15.80;;;2.20;1.00;;;;;;5048188;28;20175;-66
2022/12/04 08:39:54;;;;;;;26.17;14.00;;;2.30;1.00;;;;;;5050485;28;20914;-63
2022/12/04 08:42:20;;;;;;;26.67;11.73;;;2.40;1.00;;;;;;5066498;23;20193;-65
2022/12/04 08:44:46;;;;;;;29.77;13.10;;;2.30;1.00;;;;;;5045750;28;20198;-67
2022/12/04 08:47:12;;;;;;;23.80;12.80;;;2.30;1.00;;;;;;5045659;28;20194;-67
2022/12/04 08:49:37;;;;;;;30.87;13.97;;;2.30;1.00;;;;;;5045664;28;20272;-64
2022/12/04 08:52:03;;;;;;;24.67;14.73;;;2.50;1.00;;;;;;5040727;28;20325;-66
2022/12/04 08:54:29;;;;;;;24.20;14.43;;;2.40;1.00;;;;;;5045025;28;20202;-66
2022/12/04 08:56:55;;;;;;;29.50;14.30;;;2.30;1.00;;;;;;5047221;28;20182;-67
2022/12/04 08:59:20;;;;;;;25.97;13.30;;;2.50;1.00;;;;;;5060762;28;20179;-69
2022/12/04 09:01:50;;;;;;;27.03;13.37;;;2.60;1.00;;;;;;5048441;28;20175;-67
2022/12/04 09:04:17;;;;;;;31.53;14.37;;;2.80;1.00;;;;;;5044750;28;20210;-67
2022/12/04 09:06:42;;;;;;;28.07;13.60;;;3.00;1.00;;;;;;5046491;28;20433;-68
2022/12/04 09:09:08;;;;;;;24.83;12.93;;;3.00;1.00;;;;;;5049347;28;20436;-65
2022/12/04 09:11:34;;;;;;;27.47;13.20;;;3.10;1.00;;;;;;5044781;28;20190;-65
2022/12/04 09:14:01;;;;;;;23.47;12.20;;;3.10;1.00;;;;;;5050932;28;20260;-68
2022/12/04 09:16:27;;;;;;;21.80;13.23;;;3.10;1.00;;;;;;5049088;28;20171;-68
2022/12/04 09:18:53;;;;;;;23.03;11.23;;;3.00;1.00;;;;;;5050979;28;20471;-67
2022/12/04 09:21:21;;;;;;;22.73;12.07;;;2.80;1.00;;;;;;5049270;28;20178;-65
2022/12/04 09:23:46;;;;;;;23.37;11.77;;;2.70;1.00;;;;;;5050881;28;20449;-65
2022/12/04 09:26:30;;;;;;;26.80;13.20;;;2.90;1.00;;;;;;5049137;28;20437;-67
2022/12/04 09:28:58;;;;;;;25.00;12.67;;;2.90;1.00;;;;;;5050779;28;20270;-68
2022/12/04 09:31:24;;;;;;;21.60;11.47;;;2.70;1.00;;;;;;5047431;28;20436;-67
2022/12/04 09:33:50;;;;;;;24.17;12.07;;;2.70;1.00;;;;;;5050966;28;20449;-68
2022/12/04 09:36:16;;;;;;;24.00;12.87;;;2.50;1.00;;;;;;5046981;28;20171;-67
2022/12/04 09:38:47;;;;;;;24.00;12.73;;;2.50;1.00;;;;;;5046196;28;20911;-68
2022/12/04 09:41:31;;;;;;;30.83;14.23;;;2.70;1.00;;;;;;5046286;28;20444;-64
2022/12/04 09:44:13;;;;;;;24.03;12.20;;;2.50;1.00;;;;;;5045268;28;20468;-66
2022/12/04 09:46:48;;;;;;;32.20;13.27;;;2.20;1.00;;;;;;5047069;28;20925;-65
2022/12/04 09:49:26;;;;;;;28.60;13.10;;;2.20;1.00;;;;;;5044845;28;20425;-65
2022/12/04 09:51:56;;;;;;;27.77;14.37;;;2.40;1.00;;;;;;5045470;28;20460;-65
2022/12/04 09:54:29;;;;;;;21.90;12.47;;;2.50;1.00;;;;;;5043505;28;20787;-66
2022/12/04 09:57:02;;;;;;;27.13;12.77;;;2.30;1.00;;;;;;5045539;28;20444;-68
2022/12/04 09:59:30;;;;;;;26.03;13.07;;;2.30;1.00;;;;;;5048172;28;20548;-68
2022/12/04 10:02:02;;;;;;;25.93;13.70;;;2.20;1.00;;;;;;5039282;28;20433;-68
2022/12/04 10:04:28;;;;;;;27.57;13.70;;;2.20;1.00;;;;;;5047826;28;20420;-66
2022/12/04 10:07:11;;;;;;;20.40;11.33;;;2.30;1.00;;;;;;5050579;28;20470;-69
2022/12/04 10:09:59;;;;;;;17.63;10.33;;;2.30;1.00;;;;;;5064792;28;20420;-67
2022/12/04 10:12:36;;;;;;;29.20;14.23;;;2.50;1.00;;;;;;5049480;28;20935;-66
2022/12/04 10:15:05;;;;;;;26.07;12.73;;;2.50;1.00;;;;;;5048462;28;20895;-67
2022/12/04 10:17:39;;;;;;;21.20;11.70;;;2.60;1.00;;;;;;5047354;28;20428;-67
2022/12/04 10:20:36;;;;;;;21.73;11.57;;;2.30;1.00;;;;;;5047000;28;20479;-65
2022/12/04 10:23:11;;;;;;;23.47;12.20;;;2.30;1.00;;;;;;5042731;28;20476;-66
2022/12/04 10:25:38;;;;;;;19.87;9.90;;;2.20;1.00;;;;;;5047941;28;20551;-66
2022/12/04 10:28:23;;;;;;;22.00;11.23;;;2.20;1.00;;;;;;5040956;28;20426;-67
2022/12/04 10:30:52;;;;;;;26.63;13.07;;;2.30;1.00;;;;;;5045280;28;20865;-66
2022/12/04 10:33:22;;;;;;;25.00;11.07;;;2.40;1.00;;;;;;5046240;28;20572;-66
2022/12/04 10:35:51;;;;;;;23.80;13.20;;;2.50;1.00;;;;;;5046377;28;20444;-66
2022/12/04 10:38:46;;;;;;;21.83;13.70;;;2.70;1.00;;;;;;5046777;28;20512;-66
2022/12/04 10:41:24;;;;;;;21.80;12.67;;;2.80;1.00;;;;;;5044512;28;20425;-66
2022/12/04 10:43:50;;;;;;;24.90;14.07;;;2.90;1.00;;;;;;5041507;28;20583;-67
2022/12/04 10:46:29;;;;;;;22.23;11.93;;;2.50;1.00;;;;;;5047030;28;20430;-67
2022/12/04 10:49:35;;;;;;;21.50;11.47;;;2.50;1.00;;;;;;5045672;28;20426;-68
2022/12/04 10:52:02;;;;;;;16.50;10.03;;;2.70;1.00;;;;;;5005354;28;20412;-67
2022/12/04 10:54:52;;;;;;;20.20;12.40;;;2.80;1.00;;;;;;4990107;28;20455;-69
2022/12/04 10:57:18;;;;;;;21.23;11.17;;;2.60;1.00;;;;;;4988695;28;20424;-67
2022/12/04 10:59:53;;;;;;;22.73;10.87;;;2.60;1.00;;;;;;5001423;28;20469;-65
2022/12/04 11:02:31;;;;;;;22.50;11.60;;;2.70;1.00;;;;;;5026110;28;20266;-68
2022/12/04 11:05:06;;;;;;;19.63;10.47;;;2.70;1.00;;;;;;4999036;28;20443;-68
2022/12/04 11:07:47;;;;;;;21.70;12.27;;;2.80;1.00;;;;;;5024895;28;20529;-69
2022/12/04 11:10:38;;;;;;;23.40;13.17;;;2.90;1.00;;;;;;5030877;28;20517;-64
2022/12/04 11:13:14;;;;;;;20.27;12.00;;;3.00;1.00;;;;;;5011783;28;20463;-67
2022/12/04 11:15:49;;;;;;;21.80;11.40;;;2.90;1.00;;;;;;5003919;28;20475;-68
2022/12/04 11:18:17;;;;;;;20.07;11.20;;;3.10;1.00;;;;;;5008868;28;20464;-66
2022/12/04 11:20:49;;;;;;;22.13;13.43;;;3.00;1.00;;;;;;5004131;28;20443;-65
2022/12/04 11:23:16;;;;;;;22.97;12.40;;;3.10;1.00;;;;;;5034287;28;20536;-66
2022/12/04 11:25:57;;;;;;;17.20;11.17;;;3.20;1.00;;;;;;5039069;28;20452;-65
2022/12/04 11:28:30;;;;;;;13.67;8.70;;;3.30;1.00;;;;;;5045232;28;20971;-66
2022/12/04 11:30:59;;;;;;;29.37;13.47;;;4.10;1.00;;;;;;5050376;28;20429;-66
2022/12/04 11:33:47;;;;;;;26.63;13.30;;;3.90;1.00;;;;;;5046450;28;20537;-66
2022/12/04 11:36:33;;;;;;;21.37;13.03;;;3.80;1.00;;;;;;5044224;28;20991;-67
2022/12/04 11:39:26;;;;;;;24.20;12.93;;;3.50;1.00;;;;;;5049856;28;20424;-66
2022/12/04 11:42:22;;;;;;;20.60;11.83;;;3.40;1.00;;;;;;5049556;28;20503;-69
2022/12/04 11:44:54;;;;;;;19.37;10.60;;;3.40;1.00;;;;;;5050339;28;20562;-67
2022/12/04 11:47:22;;;;;;;18.17;10.20;;;3.30;1.00;;;;;;5049386;28;20425;-66
2022/12/04 11:50:17;;;;;;;22.77;12.50;;;3.00;1.00;;;;;;5051490;28;20494;-68
2022/12/04 11:53:09;;;;;;;20.47;12.77;;;3.10;1.00;;;;;;5048702;28;20457;-66
2022/12/04 11:55:41;;;;;;;25.83;11.93;;;3.00;1.00;;;;;;5033451;28;20845;-66
2022/12/04 11:58:25;;;;;;;23.93;13.10;;;3.00;1.00;;;;;;5043866;28;21172;-66
2022/12/04 12:01:19;;;;;;;30.03;13.37;;;3.20;1.00;;;;;;5048232;28;20429;-66
2022/12/04 12:04:10;;;;;;;19.30;12.80;;;3.40;1.00;;;;;;5044329;28;20449;-65
2022/12/04 12:06:53;;;;;;;119.87;22.83;;;3.50;1.00;;;;;;5039496;28;20461;-67
2022/12/04 12:09:38;;;;;;;98.70;19.73;;;3.60;1.00;;;;;;5045527;28;20466;-67
2022/12/04 12:12:16;;;;;;;54.03;16.47;;;3.60;1.00;;;;;;5039796;28;20425;-66
2022/12/04 12:15:06;;;;;;;20.83;11.23;;;3.60;1.00;;;;;;5033635;28;20466;-65
2022/12/04 12:17:41;;;;;;;35.23;13.57;;;3.60;1.00;;;;;;5031586;28;20433;-66
2022/12/04 12:20:28;;;;;;;21.27;11.87;;;3.60;1.00;;;;;;5030864;28;20940;-67
2022/12/04 12:23:29;;;;;;;21.30;12.50;;;3.40;1.00;;;;;;5030901;28;20452;-67
2022/12/04 12:26:09;;;;;;;33.63;12.53;;;3.30;1.00;;;;;;5031954;28;20406;-67
2022/12/04 12:28:53;;;;;;;28.63;13.80;;;3.40;1.00;;;;;;5031201;28;20460;-65
2022/12/04 12:31:31;;;;;;;22.50;13.10;;;3.40;1.00;;;;;;5030063;28;20417;-67
2022/12/04 12:34:02;;;;;;;20.50;12.30;;;3.50;1.00;;;;;;5030311;28;20449;-69
2022/12/04 12:36:34;;;;;;;21.73;13.20;;;3.50;1.00;;;;;;5030829;28;20399;-67
2022/12/04 12:39:08;;;;;;;24.97;13.07;;;3.70;1.00;;;;;;5031507;28;20395;-67
2022/12/04 12:41:56;;;;;;;24.23;12.20;;;3.70;1.00;;;;;;5026249;28;20437;-67
2022/12/04 12:44:25;;;;;;;26.83;12.40;;;3.70;1.00;;;;;;5030466;28;20457;-68
2022/12/04 12:47:02;;;;;;;22.10;12.77;;;3.80;1.00;;;;;;5029782;28;20423;-69
2022/12/04 12:49:36;;;;;;;26.83;12.93;;;3.90;1.00;;;;;;5027524;28;20509;-66
2022/12/04 12:52:19;;;;;;;22.70;13.63;;;3.90;1.00;;;;;;5028369;28;20414;-66
2022/12/04 12:54:54;;;;;;;26.63;14.37;;;3.90;1.00;;;;;;5025925;28;20838;-67
2022/12/04 12:57:33;;;;;;;28.67;15.23;;;3.90;1.00;;;;;;5024607;28;20930;-68
2022/12/04 13:00:12;;;;;;;28.47;13.60;;;3.90;1.00;;;;;;5029025;28;20442;-66
2022/12/04 13:03:02;;;;;;;21.03;13.47;;;3.90;1.00;;;;;;5029201;28;20928;-66
2022/12/04 13:05:43;;;;;;;24.03;13.50;;;3.80;1.00;;;;;;5029086;28;20426;-66
2022/12/04 13:08:09;;;;;;;21.97;14.80;;;3.80;1.00;;;;;;5029296;28;20414;-67
2022/12/04 13:10:45;;;;;;;21.20;13.80;;;3.90;1.00;;;;;;5029341;28;20415;-66
2022/12/04 13:13:33;;;;;;;22.37;13.57;;;3.80;1.00;;;;;;5009070;28;20423;-64
2022/12/04 13:16:14;;;;;;;26.87;14.30;;;3.60;1.00;;;;;;5010789;28;20403;-68
2022/12/04 13:19:11;;;;;;;24.50;13.67;;;3.40;1.00;;;;;;5028043;28;20435;-68
2022/12/04 13:22:20;;;;;;;25.07;13.10;;;3.50;1.00;;;;;;5025164;28;20411;-69
2022/12/04 13:25:04;;;;;;;26.80;13.87;;;3.50;1.00;;;;;;5026843;28;20880;-68